Time;durP1;ratioP1;P1;durP2;ratioP2;P2;SDS_P1;SDS_P2;PMS_P1;PMS_P2;Temp;Humidity;BMP_temperature;BMP_pressure;BME280_temperature;BME280_humidity;BME280_pressure;Samples;Min_cycle;Max_cycle;Signal;HPM_P1;HPM_P2
2023/07/17 00:01:05;;;;;;;4.55;2.47;;;;;;;25.89;41.99;99902.66;3074675;28;20142;-68
2023/07/17 00:02:37;;;;;;;6.97;2.45;;;;;;;25.89;42.17;99899.97;3081839;28;20540;-68
2023/07/17 00:04:08;;;;;;;10.27;2.80;;;;;;;25.90;42.40;99908.81;3073429;28;20429;-68
2023/07/17 00:05:40;;;;;;;6.78;2.65;;;;;;;25.91;42.41;99910.47;3084179;28;20061;-67
2023/07/17 00:07:11;;;;;;;8.30;2.53;;;;;;;25.91;42.25;99908.66;3084449;28;20059;-67
2023/07/17 00:08:43;;;;;;;9.30;2.63;;;;;;;25.90;42.02;99906.16;3084386;28;20051;-71
2023/07/17 00:10:14;;;;;;;8.65;2.25;;;;;;;25.86;42.14;99908.31;3084107;28;20206;-72
2023/07/17 00:11:46;;;;;;;5.65;2.67;;;;;;;25.87;42.04;99912.63;3084571;28;20063;-72
2023/07/17 00:13:18;;;;;;;4.25;2.75;;;;;;;25.90;41.72;99911.47;3083705;28;20061;-72
2023/07/17 00:14:50;;;;;;;5.75;2.72;;;;;;;25.88;42.19;99908.97;3072267;28;20087;-72
2023/07/17 00:16:21;;;;;;;4.82;2.92;;;;;;;25.89;41.90;99915.16;3080140;28;20050;-72
2023/07/17 00:17:53;;;;;;;5.72;2.78;;;;;;;25.89;41.91;99907.97;3079198;28;20055;-72
2023/07/17 00:19:24;;;;;;;6.20;3.10;;;;;;;25.91;41.89;99914.00;3072248;28;20047;-72
2023/07/17 00:20:56;;;;;;;7.35;2.75;;;;;;;25.91;41.59;99914.00;3077963;28;20050;-73
2023/07/17 00:22:26;;;;;;;5.35;2.67;;;;;;;25.92;41.33;99907.66;3084273;28;20058;-74
2023/07/17 00:23:58;;;;;;;4.78;3.00;;;;;;;25.90;41.81;99911.47;3084259;28;20416;-74
2023/07/17 00:25:30;;;;;;;5.22;2.63;;;;;;;25.91;41.69;99911.31;3084412;28;20050;-74
2023/07/17 00:27:01;;;;;;;7.70;2.78;;;;;;;25.91;41.61;99910.47;3084352;28;20516;-74
2023/07/17 00:28:34;;;;;;;10.30;3.58;;;;;;;25.92;41.66;99909.50;3078091;28;20047;-74
2023/07/17 00:30:05;;;;;;;;;;;;;;;25.75;42.11;99914.75;3074143;28;20062;-75
2023/07/17 00:31:37;;;;;;;5.35;2.95;;;;;;;25.81;41.79;99905.28;3084343;28;19941;-75
2023/07/17 00:33:09;;;;;;;5.13;2.97;;;;;;;25.85;41.55;99910.16;3078161;28;20571;-75
2023/07/17 00:34:41;;;;;;;10.88;3.15;;;;;;;25.87;41.60;99910.81;3072237;28;20051;-75
2023/07/17 00:36:12;;;;;;;10.55;2.97;;;;;;;25.91;41.88;99915.81;3083176;28;20137;-75
2023/07/17 00:37:45;;;;;;;8.07;3.05;;;;;;;25.89;41.57;99918.66;3084265;28;20050;-75
2023/07/17 00:39:19;;;;;;;8.80;2.92;;;;;;;25.89;41.78;99915.16;3083914;28;20072;-75
2023/07/17 00:40:50;;;;;;;7.35;3.00;;;;;;;25.87;41.28;99920.66;3084300;28;20051;-74
2023/07/17 00:42:21;;;;;;;6.10;2.60;;;;;;;25.87;41.65;99918.81;3083784;28;20104;-75
2023/07/17 00:43:54;;;;;;;8.02;2.75;;;;;;;25.90;41.66;99922.16;3071209;28;20051;-74
2023/07/17 00:45:25;;;;;;;;;;;;;;;25.73;41.55;99921.25;3079669;28;20046;-74
2023/07/17 00:47:00;;;;;;;5.97;2.60;;;;;;;25.78;41.85;99927.78;3083730;28;19930;-75
2023/07/17 00:48:31;;;;;;;3.72;2.20;;;;;;;25.80;41.37;99932.94;3075038;28;20047;-75
2023/07/17 00:50:05;;;;;;;11.45;2.70;;;;;;;25.82;41.31;99922.97;3074637;28;20047;-74
2023/07/17 00:51:38;;;;;;;6.82;3.15;;;;;;;25.82;41.55;99931.81;3079130;28;20142;-75
2023/07/17 00:53:10;;;;;;;8.98;2.83;;;;;;;25.80;41.75;99925.78;3075466;28;20194;-75
2023/07/17 00:54:42;;;;;;;10.90;3.08;;;;;;;25.80;41.40;99922.28;3083984;28;20138;-74
2023/07/17 00:56:14;;;;;;;7.95;3.58;;;;;;;25.79;41.73;99923.25;3083816;28;20457;-74
2023/07/17 00:57:47;;;;;;;6.40;2.88;;;;;;;25.81;41.20;99924.78;3077606;28;20047;-73
2023/07/17 00:59:20;;;;;;;7.45;2.67;;;;;;;25.80;41.64;99928.44;3072551;28;20544;-73
2023/07/17 01:00:51;;;;;;;5.00;2.80;;;;;;;25.78;41.30;99926.94;3084191;28;20061;-73
2023/07/17 01:02:23;;;;;;;14.50;2.85;;;;;;;25.78;41.18;99930.44;3081666;28;20054;-73
2023/07/17 01:03:55;;;;;;;7.35;2.92;;;;;;;25.78;41.16;99918.94;3070993;28;20106;-73
2023/07/17 01:05:27;;;;;;;6.18;2.63;;;;;;;25.79;41.22;99925.94;3071648;28;20052;-73
2023/07/17 01:06:58;;;;;;;6.72;2.40;;;;;;;25.78;41.30;99925.09;3082252;28;20507;-73
2023/07/17 01:08:30;;;;;;;8.30;3.15;;;;;;;25.78;41.29;99927.78;3083782;28;20054;-73
2023/07/17 01:10:01;;;;;;;8.75;2.92;;;;;;;25.80;41.76;99925.78;3083772;28;20598;-73
2023/07/17 01:11:32;;;;;;;6.20;2.53;;;;;;;25.80;41.65;99923.13;3083875;28;20057;-73
2023/07/17 01:13:04;;;;;;;6.35;2.60;;;;;;;25.79;41.65;99926.78;3072579;28;20055;-72
2023/07/17 01:14:36;;;;;;;6.38;3.05;;;;;;;25.80;41.19;99925.78;3078268;28;20066;-73
2023/07/17 01:16:08;;;;;;;10.38;2.83;;;;;;;25.79;41.43;99921.47;3083526;28;20133;-75
2023/07/17 01:17:40;;;;;;;11.38;3.00;;;;;;;25.79;41.35;99934.78;3084060;28;20062;-72
2023/07/17 01:19:11;;;;;;;6.03;3.05;;;;;;;25.78;41.17;99926.94;3073722;28;20087;-72
2023/07/17 01:20:43;;;;;;;9.57;2.85;;;;;;;25.73;41.64;99926.59;3075079;28;20070;-72
2023/07/17 01:22:22;;;;;;;8.05;2.38;;;;;;;25.76;41.39;99927.09;3083705;28;20782;-72
2023/07/17 01:23:56;;;;;;;3.75;2.55;;;;;;;25.75;41.19;99928.09;3084137;28;20059;-72
2023/07/17 01:25:28;;;;;;;7.90;2.72;;;;;;;25.75;41.40;99929.94;3083846;28;20051;-72
2023/07/17 01:26:59;;;;;;;6.78;2.88;;;;;;;25.73;41.19;99921.25;3077798;28;20575;-72
2023/07/17 01:28:31;;;;;;;8.60;2.75;;;;;;;25.73;41.35;99929.25;3072910;28;20055;-72
2023/07/17 01:30:04;;;;;;;12.43;2.85;;;;;;;25.72;41.61;99928.44;3084007;28;20050;-72
2023/07/17 01:31:38;;;;;;;5.85;2.67;;;;;;;25.72;41.77;99924.94;3083984;28;20488;-72
2023/07/17 01:33:09;;;;;;;6.47;3.10;;;;;;;25.73;41.93;99926.59;3061285;29;20092;-72
2023/07/17 01:34:42;;;;;;;10.82;2.72;;;;;;;25.73;41.97;99926.59;3071790;28;20109;-72
2023/07/17 01:36:13;;;;;;;4.67;2.43;;;;;;;25.70;41.57;99921.59;3082419;28;20480;-72
2023/07/17 01:37:45;;;;;;;9.68;3.28;;;;;;;25.67;41.91;99924.56;3083893;28;20062;-72
2023/07/17 01:39:17;;;;;;;10.73;2.85;;;;;;;25.65;42.08;99925.59;3083731;28;20062;-72
2023/07/17 01:40:49;;;;;;;5.63;2.87;;;;;;;25.63;41.85;99932.91;3082641;28;20055;-72
2023/07/17 01:42:21;;;;;;;8.02;2.78;;;;;;;25.61;41.67;99923.41;3071961;28;20480;-72
2023/07/17 01:43:52;;;;;;;6.90;2.92;;;;;;;25.59;42.22;99928.91;3078816;28;20051;-73
2023/07/17 01:45:24;;;;;;;3.70;2.55;;;;;;;25.59;42.21;99922.75;3083527;28;20043;-73
2023/07/17 01:46:55;;;;;;;7.68;2.83;;;;;;;25.56;42.10;99921.25;3083801;28;20417;-73
2023/07/17 01:48:27;;;;;;;8.02;2.80;;;;;;;25.55;41.52;99927.53;3081231;28;20089;-72
2023/07/17 01:49:57;;;;;;;10.90;2.83;;;;;;;25.52;42.04;99925.22;3071494;28;20055;-73
2023/07/17 01:51:29;;;;;;;5.97;2.83;;;;;;;25.51;41.49;99926.22;3074834;28;20053;-72
2023/07/17 01:53:00;;;;;;;11.73;2.72;;;;;;;25.51;41.84;99925.38;3076166;28;20059;-71
2023/07/17 01:54:33;;;;;;;4.45;2.50;;;;;;;25.52;41.45;99927.88;3072851;28;20512;-71
2023/07/17 01:56:04;;;;;;;;;;;;;;;25.35;42.09;99918.16;3072740;28;20077;-71
2023/07/17 01:57:36;;;;;;;8.55;3.70;;;;;;;25.43;41.68;99926.19;3071993;28;19927;-71
2023/07/17 01:59:07;;;;;;;3.78;2.40;;;;;;;25.46;41.78;99925.03;3083658;28;20061;-71
2023/07/17 02:00:38;;;;;;;9.45;3.25;;;;;;;25.46;41.79;99922.38;3083583;28;20055;-72
2023/07/17 02:02:11;;;;;;;9.55;2.78;;;;;;;25.47;41.37;99932.03;3083248;28;20065;-72
2023/07/17 02:03:42;;;;;;;8.83;3.23;;;;;;;25.48;41.45;99933.72;3071492;28;20047;-72
2023/07/17 02:05:13;;;;;;;8.05;2.92;;;;;;;25.47;41.29;99935.53;3071532;28;20050;-73
2023/07/17 02:06:45;;;;;;;5.35;2.90;;;;;;;25.45;41.25;99931.38;3079959;28;20057;-73
2023/07/17 02:08:16;;;;;;;6.50;2.50;;;;;;;25.41;41.33;99929.03;3083453;28;20066;-72
2023/07/17 02:09:49;;;;;;;4.93;3.30;;;;;;;25.40;41.68;99922.00;3083585;28;20055;-73
2023/07/17 02:11:22;;;;;;;;;;;;;;;25.15;42.10;99923.75;3073628;28;20520;-72
2023/07/17 02:12:53;;;;;;;7.65;2.92;;;;;;;25.15;41.88;99930.94;3075311;28;20086;-72
2023/07/17 02:14:25;;;;;;;9.75;3.00;;;;;;;25.12;42.00;99923.22;3078379;28;20627;-72
2023/07/17 02:15:56;;;;;;;6.93;2.95;;;;;;;25.09;42.25;99923.53;3080796;28;20512;-72
2023/07/17 02:17:28;;;;;;;9.48;3.17;;;;;;;25.10;42.55;99926.03;3080479;28;20054;-71
2023/07/17 02:18:59;;;;;;;6.53;3.33;;;;;;;25.11;42.53;99933.06;3076427;28;20125;-71
2023/07/17 02:20:31;;;;;;;6.43;3.10;;;;;;;25.11;42.73;99922.41;3070504;28;20059;-71
2023/07/17 02:22:02;;;;;;;7.15;3.25;;;;;;;25.11;42.80;99925.06;3080407;28;20062;-72
2023/07/17 02:23:34;;;;;;;11.32;3.40;;;;;;;25.10;42.67;99925.22;3080645;28;20507;-71
2023/07/17 02:25:07;;;;;;;6.30;3.05;;;;;;;25.11;42.88;99927.72;3076843;28;20204;-71
2023/07/17 02:26:39;;;;;;;;;;;;;;;24.92;42.97;99925.28;3068846;28;20138;-71
2023/07/17 02:28:10;;;;;;;6.63;3.15;;;;;;;25.00;43.08;99929.84;3079417;28;19981;-71
2023/07/17 02:29:42;;;;;;;7.57;3.88;;;;;;;25.05;43.63;99930.16;3080397;28;20610;-71
2023/07/17 02:31:12;;;;;;;5.50;3.58;;;;;;;25.04;43.85;99925.84;3080276;28;20058;-72
2023/07/17 02:32:44;;;;;;;11.30;4.45;;;;;;;25.03;44.25;99929.50;3080475;28;20061;-72
2023/07/17 02:34:15;;;;;;;10.20;4.78;;;;;;;25.01;44.17;99921.66;3075126;28;20080;-71
2023/07/17 02:35:47;;;;;;;6.97;3.70;;;;;;;24.97;44.41;99925.66;3068076;28;20094;-71
2023/07/17 02:37:18;;;;;;;11.20;4.30;;;;;;;24.94;44.92;99932.13;3073914;28;20563;-72
2023/07/17 02:38:50;;;;;;;12.65;3.90;;;;;;;24.95;45.11;99930.28;3080287;28;20059;-72
2023/07/17 02:40:22;;;;;;;6.50;3.70;;;;;;;24.93;44.73;99924.28;3071009;28;20639;-72
2023/07/17 02:41:54;;;;;;;7.90;3.65;;;;;;;24.91;44.92;99924.47;3071950;28;20218;-71
2023/07/17 02:43:25;;;;;;;6.65;4.00;;;;;;;24.88;45.41;99921.28;3079817;28;20055;-71
2023/07/17 02:44:56;;;;;;;4.82;3.20;;;;;;;24.86;45.57;99920.59;3080468;28;20513;-71
2023/07/17 02:46:28;;;;;;;9.20;4.07;;;;;;;24.86;45.33;99923.25;3080100;28;20059;-71
2023/07/17 02:47:59;;;;;;;10.00;3.70;;;;;;;24.88;45.56;99929.28;3080198;28;20279;-70
2023/07/17 02:49:31;;;;;;;9.23;3.72;;;;;;;24.90;45.36;99929.94;3074614;28;20137;-70
2023/07/17 02:51:03;;;;;;;7.88;4.40;;;;;;;24.91;45.35;99924.47;3057136;29;20553;-71
2023/07/17 02:52:36;;;;;;;8.25;3.75;;;;;;;24.91;45.40;99927.13;3076044;28;20070;-70
2023/07/17 02:54:07;;;;;;;7.15;3.20;;;;;;;24.88;45.38;99923.94;3068102;28;20579;-71
2023/07/17 02:55:40;;;;;;;8.15;3.60;;;;;;;24.90;45.24;99928.09;3068244;28;20111;-71
2023/07/17 02:57:11;;;;;;;12.85;3.72;;;;;;;24.87;45.58;99931.06;3078401;28;20054;-71
2023/07/17 02:58:43;;;;;;;14.55;4.45;;;;;;;24.87;45.66;99925.75;3079965;28;20124;-72
2023/07/17 03:00:15;;;;;;;6.90;3.42;;;;;;;24.85;45.60;99921.59;3080276;28;20058;-72
2023/07/17 03:01:48;;;;;;;6.57;3.83;;;;;;;24.87;45.29;99927.59;3080168;28;20058;-72
2023/07/17 03:03:18;;;;;;;7.38;3.88;;;;;;;24.85;45.13;99934.91;3070488;28;20105;-72
2023/07/17 03:04:50;;;;;;;10.35;3.33;;;;;;;24.87;45.01;99938.25;3074222;28;20055;-72
2023/07/17 03:06:22;;;;;;;13.30;3.30;;;;;;;24.85;45.27;99933.09;3079746;28;20165;-72
2023/07/17 03:07:54;;;;;;;8.45;3.33;;;;;;;24.81;44.92;99937.03;3079884;28;20549;-72
2023/07/17 03:09:26;;;;;;;10.18;3.88;;;;;;;24.77;45.31;99934.88;3071667;28;20063;-72
2023/07/17 03:11:03;;;;;;;9.20;3.35;;;;;;;24.74;45.15;99941.34;3071443;28;20050;-72
2023/07/17 03:12:34;;;;;;;6.63;3.13;;;;;;;24.72;45.20;99932.66;3079850;28;20889;-72
2023/07/17 03:14:06;;;;;;;6.03;3.67;;;;;;;24.70;44.88;99946.16;3079777;28;20066;-71
2023/07/17 03:15:38;;;;;;;4.78;3.22;;;;;;;24.68;45.31;99939.31;3079581;28;20471;-71
2023/07/17 03:17:08;;;;;;;8.15;3.70;;;;;;;24.66;44.96;99939.44;3079919;28;20197;-72
2023/07/17 03:18:40;;;;;;;6.82;3.58;;;;;;;24.66;44.91;99944.78;3079959;28;20736;-71
2023/07/17 03:20:13;;;;;;;6.95;3.40;;;;;;;24.66;44.89;99946.59;3071532;28;20094;-72
2023/07/17 03:21:44;;;;;;;8.00;3.27;;;;;;;24.61;44.75;99943.56;3079517;28;20051;-72
2023/07/17 03:23:15;;;;;;;4.70;2.95;;;;;;;24.60;44.84;99939.25;3077369;28;20055;-72
2023/07/17 03:24:47;;;;;;;6.88;3.53;;;;;;;24.61;44.91;99944.44;3067774;28;20568;-71
2023/07/17 03:26:19;;;;;;;6.70;3.70;;;;;;;24.62;44.96;99948.75;3076876;28;20357;-74
2023/07/17 03:27:51;;;;;;;7.60;3.67;;;;;;;24.68;45.32;99949.97;3079804;28;20070;-73
2023/07/17 03:29:22;;;;;;;6.13;3.25;;;;;;;24.69;45.27;99959.59;3079709;28;20413;-74
2023/07/17 03:30:56;;;;;;;8.77;3.63;;;;;;;24.69;44.61;99955.09;3080004;28;20055;-74
2023/07/17 03:32:31;;;;;;;9.82;3.17;;;;;;;24.69;44.58;99954.28;3076821;28;20050;-75
2023/07/17 03:34:03;;;;;;;8.98;4.18;;;;;;;24.60;44.63;99950.72;3074321;28;20061;-75
2023/07/17 03:35:34;;;;;;;12.23;4.03;;;;;;;24.59;44.77;99959.72;3069538;28;20114;-75
2023/07/17 03:37:06;;;;;;;6.03;3.85;;;;;;;24.56;45.04;99960.03;3072911;28;20608;-75
2023/07/17 03:38:37;;;;;;;6.82;3.78;;;;;;;24.55;45.09;99955.69;3071185;28;20114;-75
2023/07/17 03:40:10;;;;;;;11.52;3.85;;;;;;;24.52;45.08;99956.00;3071611;28;20054;-73
2023/07/17 03:41:43;;;;;;;6.60;3.40;;;;;;;24.50;44.92;99955.31;3079650;28;20136;-75
2023/07/17 03:43:14;;;;;;;7.97;3.60;;;;;;;24.52;44.88;99958.66;3079478;28;20061;-75
2023/07/17 03:44:46;;;;;;;11.60;3.42;;;;;;;24.53;44.44;99955.00;3079425;28;20109;-75
2023/07/17 03:46:18;;;;;;;11.98;3.70;;;;;;;24.54;44.65;99947.84;3079405;28;20733;-75
2023/07/17 03:47:49;;;;;;;7.68;3.50;;;;;;;24.56;44.44;99954.69;3075051;28;20055;-75
2023/07/17 03:49:21;;;;;;;9.85;3.90;;;;;;;24.57;44.87;99951.03;3079535;28;20054;-75
2023/07/17 03:50:52;;;;;;;7.80;3.67;;;;;;;24.59;44.54;99953.56;3066443;29;20055;-75
2023/07/17 03:52:24;;;;;;;8.57;3.25;;;;;;;24.60;44.58;99948.06;3075825;28;20058;-76
2023/07/17 03:53:55;;;;;;;9.05;3.63;;;;;;;24.60;44.64;99955.22;3077270;28;20058;-76
2023/07/17 03:55:27;;;;;;;7.25;3.35;;;;;;;24.62;44.36;99961.22;3079135;28;20445;-75
2023/07/17 03:56:59;;;;;;;9.80;3.50;;;;;;;24.64;44.69;99964.56;3079307;28;20866;-75
2023/07/17 03:58:31;;;;;;;4.97;3.40;;;;;;;24.62;44.42;99963.91;3079315;28;20065;-75
2023/07/17 04:00:04;;;;;;;9.90;4.00;;;;;;;24.64;44.56;99968.09;3079555;28;20403;-75
2023/07/17 04:01:35;;;;;;;8.18;4.35;;;;;;;24.64;44.41;99972.53;3078184;28;20061;-75
2023/07/17 04:03:07;;;;;;;8.10;3.40;;;;;;;24.63;44.87;99971.72;3070864;28;20055;-73
2023/07/17 04:04:38;;;;;;;6.57;3.97;;;;;;;24.64;44.85;99980.53;3067237;28;20059;-73
2023/07/17 04:06:10;;;;;;;8.60;4.45;;;;;;;24.60;45.40;99977.34;3067185;28;20050;-68
2023/07/17 04:07:41;;;;;;;7.53;4.20;;;;;;;24.59;45.61;99978.34;3067282;28;20055;-68
2023/07/17 04:09:13;;;;;;;9.60;4.93;;;;;;;24.61;45.54;99973.72;3073097;28;20081;-69
2023/07/17 04:10:43;;;;;;;12.45;4.65;;;;;;;24.60;45.98;99974.69;3075809;28;20062;-70
2023/07/17 04:12:17;;;;;;;10.27;4.30;;;;;;;24.58;46.62;99975.84;3071503;28;20070;-68
2023/07/17 04:13:48;;;;;;;12.13;4.93;;;;;;;24.52;46.89;99974.63;3079173;28;20070;-69
2023/07/17 04:15:20;;;;;;;13.38;4.82;;;;;;;24.52;47.06;99977.28;3078522;28;20046;-67
2023/07/17 04:16:51;;;;;;;8.55;6.20;;;;;;;24.50;47.78;99976.63;3078884;28;21044;-68
2023/07/17 04:18:23;;;;;;;13.18;5.32;;;;;;;24.50;47.53;99984.59;3079107;28;20055;-68
2023/07/17 04:19:54;;;;;;;13.57;5.13;;;;;;;24.50;47.64;99980.13;3078235;28;20058;-66
2023/07/17 04:21:26;;;;;;;18.17;5.00;;;;;;;24.51;47.63;99983.59;3066827;28;20070;-67
2023/07/17 04:22:56;;;;;;;14.13;5.32;;;;;;;24.54;47.90;99982.47;3067029;28;20051;-69
2023/07/17 04:24:28;;;;;;;13.00;4.60;;;;;;;24.55;47.63;99979.66;3070104;28;20078;-65
2023/07/17 04:25:59;;;;;;;18.35;4.82;;;;;;;24.56;48.09;99988.47;3078728;28;20735;-67
2023/07/17 04:27:32;;;;;;;13.38;5.15;;;;;;;24.57;48.11;99990.97;3079016;28;20059;-67
2023/07/17 04:29:03;;;;;;;25.83;5.72;;;;;;;24.57;47.98;99985.66;3074196;28;20062;-72
2023/07/17 04:30:36;;;;;;;15.20;4.82;;;;;;;24.59;48.16;99985.50;3079048;28;20058;-67
2023/07/17 04:32:08;;;;;;;11.73;4.63;;;;;;;24.53;48.34;99984.31;3055640;29;20071;-68
2023/07/17 04:33:39;;;;;;;10.95;5.25;;;;;;;24.52;48.53;99987.94;3078185;28;20138;-69
2023/07/17 04:35:11;;;;;;;8.73;4.72;;;;;;;24.51;48.47;99984.44;3067897;28;20058;-73
2023/07/17 04:36:42;;;;;;;15.60;5.35;;;;;;;24.53;48.84;99986.97;3066909;28;20051;-71
2023/07/17 04:38:13;;;;;;;11.27;4.82;;;;;;;24.51;48.92;99988.94;3066216;28;20055;-72
2023/07/17 04:39:46;;;;;;;18.90;5.57;;;;;;;24.47;48.72;99984.91;3075362;28;20230;-68
2023/07/17 04:41:17;;;;;;;14.10;5.38;;;;;;;24.46;48.82;99989.41;3078666;28;20062;-65
2023/07/17 04:42:51;;;;;;;10.35;5.15;;;;;;;24.48;49.29;99992.72;3078981;28;20133;-65
2023/07/17 04:44:23;;;;;;;16.70;6.80;;;;;;;24.48;48.94;99994.56;3078011;28;20105;-64
2023/07/17 04:45:54;;;;;;;9.73;5.07;;;;;;;24.50;49.42;99993.44;3078831;28;20321;-65
2023/07/17 04:47:25;;;;;;;18.60;4.78;;;;;;;24.52;49.04;100002.09;3078666;28;20571;-65
2023/07/17 04:48:57;;;;;;;11.52;4.70;;;;;;;24.51;49.42;99996.91;3078622;28;20047;-63
2023/07/17 04:50:28;;;;;;;14.93;4.68;;;;;;;24.50;49.14;99995.25;3075811;28;21212;-64
2023/07/17 04:52:00;;;;;;;10.35;4.90;;;;;;;24.51;49.14;99996.91;3067094;28;20059;-65
2023/07/17 04:53:31;;;;;;;10.52;4.68;;;;;;;24.55;49.19;99990.31;3073537;28;20062;-68
2023/07/17 04:55:04;;;;;;;8.13;4.57;;;;;;;24.57;48.91;99993.63;3074766;28;20051;-68
2023/07/17 04:56:35;;;;;;;31.65;18.25;;;;;;;24.59;49.20;99997.00;3078241;28;20142;-65
2023/07/17 04:58:08;;;;;;;17.92;7.45;;;;;;;24.65;49.20;99998.19;3077848;28;20461;-64
2023/07/17 04:59:40;;;;;;;;;;;;;;;24.53;49.44;99994.94;3071200;28;20059;-67
2023/07/17 05:01:11;;;;;;;13.18;4.53;;;;;;;24.66;49.01;99999.88;3077539;28;19937;-67
2023/07/17 05:02:43;;;;;;;12.30;4.93;;;;;;;24.70;49.07;99991.41;3073541;28;20059;-66
2023/07/17 05:04:15;;;;;;;17.20;4.43;;;;;;;24.73;49.13;99993.78;3067210;28;20259;-65
2023/07/17 05:05:48;;;;;;;14.93;4.60;;;;;;;24.78;48.82;99990.63;3058177;29;20225;-65
2023/07/17 05:07:20;;;;;;;10.80;4.18;;;;;;;24.83;48.73;99996.31;3066392;28;20055;-66
2023/07/17 05:08:51;;;;;;;10.07;4.20;;;;;;;24.86;48.38;99996.00;3066764;28;20146;-65
2023/07/17 05:10:23;;;;;;;13.98;4.30;;;;;;;24.90;48.87;99991.19;3068221;28;20055;-65
2023/07/17 05:11:55;;;;;;;12.27;4.13;;;;;;;24.93;48.44;99994.38;3078178;28;20417;-66
2023/07/17 05:13:29;;;;;;;15.52;3.88;;;;;;;24.99;48.42;99998.25;3078168;28;20152;-67
2023/07/17 05:15:01;;;;;;;12.95;3.88;;;;;;;25.04;47.82;99995.13;3077815;28;20064;-66
2023/07/17 05:16:33;;;;;;;10.10;4.50;;;;;;;25.09;47.67;99991.00;3078346;28;20054;-66
2023/07/17 05:18:04;;;;;;;7.65;3.67;;;;;;;25.17;47.70;99995.53;3078700;28;20496;-66
2023/07/17 05:19:36;;;;;;;9.57;3.72;;;;;;;25.24;47.39;99996.59;3071805;28;20059;-66
2023/07/17 05:21:06;;;;;;;11.95;3.75;;;;;;;25.30;46.73;99995.13;3066121;28;20203;-66
2023/07/17 05:22:38;;;;;;;9.40;3.70;;;;;;;25.37;46.82;99996.16;3072818;28;20051;-66
2023/07/17 05:24:10;;;;;;;6.47;3.60;;;;;;;25.42;46.38;99993.84;3078390;28;20238;-66
2023/07/17 05:25:43;;;;;;;14.93;3.60;;;;;;;25.49;45.88;99994.03;3074474;28;20078;-66
2023/07/17 05:27:13;;;;;;;8.10;4.57;;;;;;;25.53;45.91;99990.88;3078287;28;20058;-66
2023/07/17 05:28:49;;;;;;;11.13;3.83;;;;;;;25.62;45.53;99989.91;3078217;28;20502;-66
2023/07/17 05:30:20;;;;;;;9.43;3.75;;;;;;;25.68;45.42;99988.44;3078463;28;20865;-66
2023/07/17 05:31:52;;;;;;;10.02;3.70;;;;;;;25.75;44.98;99989.44;3078451;28;20059;-65
2023/07/17 05:33:25;;;;;;;14.00;3.55;;;;;;;25.82;45.17;99987.00;3078420;28;20109;-66
2023/07/17 05:34:56;;;;;;;9.38;3.67;;;;;;;25.84;44.59;99988.50;3077884;28;20086;-65
2023/07/17 05:36:28;;;;;;;8.27;3.35;;;;;;;25.92;44.90;99989.53;3071688;28;20043;-66
2023/07/17 05:37:59;;;;;;;9.52;4.00;;;;;;;25.99;44.40;99990.53;3072325;28;20055;-66
2023/07/17 05:39:31;;;;;;;12.18;4.05;;;;;;;26.07;44.36;99993.22;3078309;28;20050;-65
2023/07/17 05:41:02;;;;;;;9.88;3.90;;;;;;;26.15;44.35;99985.22;3071841;28;20085;-66
2023/07/17 05:42:34;;;;;;;14.18;4.72;;;;;;;26.22;44.22;99990.72;3078306;28;20230;-66
2023/07/17 05:44:07;;;;;;;12.45;3.50;;;;;;;26.30;44.29;99985.41;3078360;28;20078;-67
2023/07/17 05:45:39;;;;;;;13.15;3.78;;;;;;;26.31;43.72;99989.72;3078506;28;20090;-67
2023/07/17 05:47:10;;;;;;;10.40;4.35;;;;;;;26.36;44.12;99987.41;3078138;28;20229;-67
2023/07/17 05:48:42;;;;;;;10.88;3.53;;;;;;;26.41;44.04;99990.38;3077942;28;20117;-67
2023/07/17 05:50:13;;;;;;;8.13;3.92;;;;;;;26.46;43.72;99982.72;3079989;28;20105;-67
2023/07/17 05:51:45;;;;;;;9.60;3.13;;;;;;;26.55;43.60;99984.41;3074619;28;20109;-67
2023/07/17 05:53:17;;;;;;;13.38;5.63;;;;;;;26.63;43.70;99985.44;3073056;28;20046;-70
2023/07/17 05:54:48;;;;;;;6.57;3.10;;;;;;;26.71;43.10;99985.41;3080338;28;20542;-70
2023/07/17 05:56:26;;;;;;;9.15;3.85;;;;;;;26.75;43.03;99992.91;3080301;28;20070;-69
2023/07/17 05:58:11;;;;;;;12.07;3.13;;;;;;;26.80;42.86;99987.06;3080570;28;20512;-69
2023/07/17 05:59:48;;;;;;;9.00;3.95;;;;;;;26.87;42.40;99993.41;3080827;28;20050;-68
2023/07/17 06:01:19;;;;;;;10.52;3.38;;;;;;;26.94;42.24;99991.69;3072680;28;20047;-70
2023/07/17 06:02:51;;;;;;;8.15;3.08;;;;;;;27.00;42.36;99991.03;3068248;28;20733;-70
2023/07/17 06:04:22;;;;;;;10.32;3.78;;;;;;;27.09;42.43;99991.81;3070308;28;20055;-71
2023/07/17 06:05:54;;;;;;;9.77;3.97;;;;;;;27.16;42.07;99989.34;3080309;28;20131;-70
2023/07/17 06:07:26;;;;;;;11.32;3.40;;;;;;;27.22;42.01;99991.34;3068747;28;20047;-70
2023/07/17 06:09:01;;;;;;;9.50;3.45;;;;;;;27.26;41.68;99989.16;3080780;28;20142;-69
2023/07/17 06:10:33;;;;;;;8.13;3.80;;;;;;;27.29;41.45;99986.94;3080635;28;20196;-70
2023/07/17 06:12:04;;;;;;;9.35;3.97;;;;;;;27.34;41.76;99978.44;3080365;28;20448;-70
2023/07/17 06:13:36;;;;;;;10.30;3.50;;;;;;;27.40;41.62;99983.91;3080471;28;20137;-69
2023/07/17 06:15:11;;;;;;;15.13;3.85;;;;;;;27.51;41.08;99984.50;3080502;28;20054;-69
2023/07/17 06:16:43;;;;;;;10.75;3.42;;;;;;;27.60;40.93;99981.66;3077175;28;20573;-68
2023/07/17 06:18:14;;;;;;;12.23;3.65;;;;;;;27.67;41.03;99982.59;3068545;28;20385;-68
2023/07/17 06:19:46;;;;;;;10.00;3.13;;;;;;;27.77;40.73;99977.00;3076696;28;20574;-69
2023/07/17 06:21:17;;;;;;;6.45;3.50;;;;;;;27.85;40.38;99974.34;3076489;28;20066;-68
2023/07/17 06:22:49;;;;;;;6.13;3.33;;;;;;;27.93;40.82;99972.63;3075218;28;20540;-69
2023/07/17 06:24:21;;;;;;;10.95;3.17;;;;;;;28.01;40.47;99983.25;3080196;28;20050;-68
2023/07/17 06:25:52;;;;;;;8.88;3.67;;;;;;;28.09;40.28;99975.19;3080462;28;20158;-69
2023/07/17 06:27:24;;;;;;;7.57;3.47;;;;;;;28.13;39.82;99973.81;3080338;28;20073;-68
2023/07/17 06:28:56;;;;;;;7.32;3.05;;;;;;;28.17;39.79;99967.09;3079556;28;20085;-67
2023/07/17 06:30:30;;;;;;;10.55;3.10;;;;;;;28.22;39.55;99975.44;3080071;28;20081;-68
2023/07/17 06:32:02;;;;;;;11.15;3.50;;;;;;;28.29;39.98;99968.31;3080314;28;20078;-65
2023/07/17 06:33:34;;;;;;;4.50;2.72;;;;;;;28.40;39.66;99969.75;3080219;28;20061;-65
2023/07/17 06:35:07;;;;;;;13.03;2.97;;;;;;;28.48;39.42;99971.53;3080332;28;20534;-67
2023/07/17 06:36:39;;;;;;;13.20;3.83;;;;;;;28.52;39.15;99967.50;3073186;28;20055;-68
2023/07/17 06:38:10;;;;;;;10.45;3.30;;;;;;;28.60;38.94;99974.63;3075584;28;20054;-67
2023/07/17 06:39:42;;;;;;;6.38;3.50;;;;;;;28.66;38.64;99966.69;3080085;28;20058;-68
2023/07/17 06:41:13;;;;;;;10.00;3.60;;;;;;;28.73;38.68;99970.31;3080000;28;20050;-67
2023/07/17 06:42:46;;;;;;;7.70;3.00;;;;;;;28.75;38.36;99965.59;3079476;28;20402;-66
2023/07/17 06:44:17;;;;;;;11.43;3.33;;;;;;;28.79;37.88;99969.56;3080047;28;20137;-67
2023/07/17 06:45:50;;;;;;;11.68;3.35;;;;;;;28.84;37.81;99962.81;3079934;28;20059;-67
2023/07/17 06:47:21;;;;;;;11.15;4.07;;;;;;;28.93;37.75;99959.03;3080078;28;20483;-67
2023/07/17 06:48:53;;;;;;;7.28;3.45;;;;;;;29.02;37.43;99955.28;3080126;28;20059;-67
2023/07/17 06:50:24;;;;;;;9.48;3.38;;;;;;;29.09;37.54;99950.00;3079449;28;20054;-66
2023/07/17 06:51:56;;;;;;;8.65;3.22;;;;;;;29.17;37.61;99949.91;3071929;28;20050;-66
2023/07/17 06:53:27;;;;;;;11.15;3.58;;;;;;;29.26;37.24;99959.53;3074125;28;20117;-66
2023/07/17 06:54:59;;;;;;;10.88;3.28;;;;;;;29.33;37.25;99952.38;3079961;28;20089;-65
2023/07/17 06:56:31;;;;;;;5.97;3.47;;;;;;;29.43;37.01;99957.44;3079044;28;20042;-65
2023/07/17 06:58:03;;;;;;;9.55;3.15;;;;;;;29.52;36.86;99953.66;3067549;28;20059;-67
2023/07/17 06:59:34;;;;;;;11.02;3.47;;;;;;;29.59;36.84;99953.72;3070753;28;20051;-65
2023/07/17 07:01:07;;;;;;;10.85;3.47;;;;;;;29.67;36.88;99949.13;3079093;28;20054;-67
2023/07/17 07:02:39;;;;;;;7.40;3.20;;;;;;;29.74;36.37;99942.97;3074444;28;20057;-66
2023/07/17 07:04:11;;;;;;;12.88;3.20;;;;;;;29.81;36.37;99936.66;3076623;28;20126;-66
2023/07/17 07:05:52;;;;;;;5.75;2.88;;;;;;;29.94;36.13;99938.66;3079601;28;20054;-68
2023/07/17 07:07:24;;;;;;;12.02;3.45;;;;;;;29.99;36.10;99938.88;3073965;28;20078;-68
2023/07/17 07:08:55;;;;;;;8.32;3.63;;;;;;;30.02;35.73;99935.81;3076047;28;20062;-66
2023/07/17 07:10:27;;;;;;;9.35;3.17;;;;;;;30.09;35.73;99941.25;3079856;28;20086;-68
2023/07/17 07:11:58;;;;;;;11.15;3.10;;;;;;;30.14;35.54;99934.28;3079233;28;20058;-67